Flight Track Log - Related Links

Times and Time Zones

All times are in EST time to prevent confusion due to time zone crossing. See the N920AC flight status page for this flight to view local times or setup timezone preferences in your user account.

Time Position Orientation Groundspeed Altitude Reporting Facility
EST Latitude Longitude Course Direction KTS MPH feet Rate Location/Type
Mon 08:56:07 PM 28.5500 -81.3167 270° West 67 77 500  Level Orlando TRACON
Mon 08:57:19 PM 28.5500 -81.3500 270° West 124 143 1,100 417 Climbing Orlando TRACON
Mon 08:58:31 PM 28.5333 -81.3833 240° Southwest 115 132 1,500 500 Climbing Orlando TRACON
Mon 08:59:43 PM 28.5167 -81.4167 240° Southwest 117 135 2,300 636 Climbing Orlando TRACON
Mon 09:00:43 PM 28.5000 -81.4500 240° Southwest 110 127 2,900 408 Climbing Orlando TRACON
Mon 09:01:26 PM 28.4833 -81.4500 180° South 118 136 3,000 47 Climbing Orlando TRACON
Mon 09:02:50 PM 28.4333 -81.4667 196° South 118 136 3,000  Level Orlando TRACON
Mon 09:03:26 PM 28.4167 -81.4667 180° South 118 136 3,000 -63 Level Orlando TRACON
Mon 09:04:26 PM 28.3833 -81.4667 180° South 113 130 2,900  Descending Orlando TRACON
Mon 09:05:32 PM 28.3500 -81.4667 180° South 112 129 3,000 48 Climbing Orlando TRACON
Mon 09:06:32 PM 28.3167 -81.4667 180° South 112 129 3,000  Level Orlando TRACON
Mon 09:07:32 PM 28.2833 -81.4667 180° South 116 133 3,000  Level Orlando TRACON
Mon 09:08:38 PM 28.2500 -81.4833 204° Southwest 116 133 3,000  Level Orlando TRACON
Mon 09:09:32 PM 28.2167 -81.4833 180° South 122 140 3,000 -53 Level Orlando TRACON
Mon 09:10:32 PM 28.1833 -81.5000 204° Southwest 121 139 2,900 -50 Descending Orlando TRACON
Mon 09:11:32 PM 28.1667 -81.5000 180° South 118 136 2,900  Level Orlando TRACON
Mon 09:12:32 PM 28.1333 -81.5000 180° South 113 130 2,900  Level Orlando TRACON
Mon 09:13:51 PM 28.0833 -81.5089 189° South 121 139 2,900 43 Level Miami Center
Mon 09:14:51 PM 28.0519 -81.5125 186° South 121 139 3,000 50 Climbing Miami Center
Mon 09:15:50 PM 28.0206 -81.5183 189° South 121 139 3,000  Level Miami Center
Mon 09:16:51 PM 27.9892 -81.5192 181° South 121 139 3,000  Level Miami Center
Mon 09:17:51 PM 27.9558 -81.5225 185° South 121 139 3,000  Level Miami Center
Mon 09:18:51 PM 27.9222 -81.5283 189° South 121 139 3,000  Level Miami Center
Mon 09:19:51 PM 27.8906 -81.5342 189° South 121 139 3,000  Level Miami Center
Mon 09:20:51 PM 27.8572 -81.5397 188° South 121 139 3,000  Level Miami Center
Mon 09:21:51 PM 27.8256 -81.5453 189° South 121 139 3,000  Level Miami Center
Mon 09:22:51 PM 27.7922 -81.5486 185° South 121 139 3,000  Level Miami Center
Mon 09:23:51 PM 27.7628 -81.5500 182° South 121 139 3,000  Level Miami Center
Mon 09:24:51 PM 27.7314 -81.5533 185° South 121 139 3,000  Level Miami Center
Mon 09:25:51 PM 27.6978 -81.5589 188° South 121 139 3,000  Level Miami Center
Mon 09:26:51 PM 27.6642 -81.5647 189° South 121 139 3,000  Level Miami Center
Mon 09:27:51 PM 27.6308 -81.5681 185° South 121 139 3,000  Level Miami Center
Mon 09:28:51 PM 27.5975 -81.5689 181° South 121 139 3,000 50 Level Miami Center
Mon 09:29:51 PM 27.5639 -81.5744 188° South 121 139 3,100  Climbing Miami Center
Mon 09:30:51 PM 27.5281 -81.5800 188° South 121 139 3,000 -50 Descending Miami Center
Mon 09:31:51 PM 27.4944 -81.5881 192° South 121 139 3,000  Level Miami Center
Mon 09:32:51 PM 27.4608 -81.5936 188° South 121 139 3,000  Level Miami Center
Mon 09:33:51 PM 27.4250 -81.6039 194° South 126 145 3,000  Level Miami Center
Mon 09:34:51 PM 27.3914 -81.6094 188° South 126 145 3,000  Level Miami Center
Mon 09:35:51 PM 27.3600 -81.6128 185° South 126 145 3,000  Level Miami Center
Mon 09:36:51 PM 27.3244 -81.6161 185° South 126 145 3,000  Level Miami Center
Mon 09:37:51 PM 27.2972 -81.6219 191° South 126 145 3,000  Level Miami Center
Mon 09:38:51 PM 27.2636 -81.6253 185° South 126 145 3,000  Level Miami Center
Mon 09:39:51 PM 27.2300 -81.6333 192° South 126 145 3,000  Level Miami Center
Mon 09:40:51 PM 27.1967 -81.6342 181° South 126 145 3,000  Level Miami Center
Mon 09:41:50 PM 27.1631 -81.6422 192° South 126 145 3,000 -50 Level Miami Center
Mon 09:42:51 PM 27.1294 -81.6478 188° South 126 145 2,900  Descending Miami Center
Mon 09:43:51 PM 27.0958 -81.6533 188° South 126 145 3,000 50 Climbing Miami Center
Mon 09:44:51 PM 27.0644 -81.6544 182° South 126 145 3,000 50 Level Miami Center
Mon 09:45:51 PM 27.0311 -81.6553 181° South 126 145 3,100 50 Climbing Miami Center
Mon 09:46:51 PM 26.9911 -81.6583 184° South 126 145 3,100 -50 Level Miami Center
Mon 09:47:51 PM 26.9556 -81.6617 185° South 126 145 3,000 -50 Descending Miami Center
Mon 09:48:51 PM 26.9219 -81.6672 188° South 126 145 3,000  Level Miami Center
Mon 09:50:00 PM 26.8848 -81.6671 180° South  Level FlightAware Approximate
Mon 09:57:00 PM 26.6587 -81.6681 189° South  Level FlightAware Approximate
Mon 09:58:00 PM 26.6268 -81.6739 189° South  Level FlightAware Approximate
Mon 09:59:00 PM 26.5950 -81.6797 189° South  Level FlightAware Approximate
Mon 10:00:00 PM 26.5631 -81.6855 189° South  Level FlightAware Approximate
Mon 10:01:00 PM 26.5313 -81.6913 189° South  Level FlightAware Approximate
Mon 10:02:00 PM 26.4994 -81.6971 189° South  Level FlightAware Approximate
Mon 10:03:00 PM 26.4676 -81.7029 189° South  Level FlightAware Approximate
Mon 10:04:00 PM 26.4357 -81.7087 189° South  Level FlightAware Approximate
Mon 10:05:00 PM 26.4039 -81.7145 189° South  Level FlightAware Approximate
Mon 10:06:00 PM 26.3720 -81.7203 189° South  Level FlightAware Approximate
Mon 10:07:00 PM 26.3402 -81.7261 189° South  Level FlightAware Approximate
Mon 10:08:00 PM 26.3083 -81.7318 189° South  Level FlightAware Approximate
Mon 10:09:00 PM 26.2768 -81.7391 193° South  Level FlightAware Approximate
Mon 10:10:00 PM 26.2453 -81.7470 193° South  Level FlightAware Approximate
Mon 10:11:00 PM 26.2136 -81.7539 190° South  Level FlightAware Approximate
Mon 10:12:00 PM 26.1819 -81.7603 190° South  Level FlightAware Approximate

Login

Don't have an account? Register now (free) for customized features, flight alerts, and more!